sensor_id;sensor_type;location;lat;lon;timestamp;P1;durP1;ratioP1;P2;durP2;ratioP2
8927;SDS011;4499;48.304;11.902;2023-01-31T00:00:18;10.93;;;4.10;;
8927;SDS011;4499;48.304;11.902;2023-01-31T00:02:46;7.67;;;4.30;;
8927;SDS011;4499;48.304;11.902;2023-01-31T00:05:14;6.63;;;4.10;;
8927;SDS011;4499;48.304;11.902;2023-01-31T00:07:45;9.60;;;4.23;;
8927;SDS011;4499;48.304;11.902;2023-01-31T00:10:13;9.03;;;4.30;;
8927;SDS011;4499;48.304;11.902;2023-01-31T00:12:42;7.50;;;4.33;;
8927;SDS011;4499;48.304;11.902;2023-01-31T00:15:10;10.30;;;4.60;;
8927;SDS011;4499;48.304;11.902;2023-01-31T00:17:42;8.10;;;4.27;;
8927;SDS011;4499;48.304;11.902;2023-01-31T00:20:11;7.50;;;4.27;;
8927;SDS011;4499;48.304;11.902;2023-01-31T00:22:39;6.80;;;4.40;;
8927;SDS011;4499;48.304;11.902;2023-01-31T00:25:07;8.90;;;4.10;;
8927;SDS011;4499;48.304;11.902;2023-01-31T00:27:37;9.10;;;4.40;;
8927;SDS011;4499;48.304;11.902;2023-01-31T00:30:05;8.00;;;4.00;;
8927;SDS011;4499;48.304;11.902;2023-01-31T00:32:35;8.50;;;4.40;;
8927;SDS011;4499;48.304;11.902;2023-01-31T00:35:06;9.43;;;4.70;;
8927;SDS011;4499;48.304;11.902;2023-01-31T00:37:34;7.33;;;4.23;;
8927;SDS011;4499;48.304;11.902;2023-01-31T00:40:03;8.67;;;4.63;;
8927;SDS011;4499;48.304;11.902;2023-01-31T00:42:32;7.77;;;4.17;;
8927;SDS011;4499;48.304;11.902;2023-01-31T00:45:01;6.10;;;3.87;;
8927;SDS011;4499;48.304;11.902;2023-01-31T00:47:29;8.27;;;4.53;;
8927;SDS011;4499;48.304;11.902;2023-01-31T00:49:58;9.23;;;4.40;;
8927;SDS011;4499;48.304;11.902;2023-01-31T00:52:27;7.87;;;4.03;;
8927;SDS011;4499;48.304;11.902;2023-01-31T00:54:55;6.70;;;3.97;;
8927;SDS011;4499;48.304;11.902;2023-01-31T00:57:23;8.10;;;4.63;;
8927;SDS011;4499;48.304;11.902;2023-01-31T00:59:51;9.23;;;4.33;;
8927;SDS011;4499;48.304;11.902;2023-01-31T01:02:20;9.70;;;4.03;;
8927;SDS011;4499;48.304;11.902;2023-01-31T01:04:48;7.60;;;3.97;;
8927;SDS011;4499;48.304;11.902;2023-01-31T01:07:16;9.53;;;4.50;;
8927;SDS011;4499;48.304;11.902;2023-01-31T01:09:45;9.50;;;4.00;;
8927;SDS011;4499;48.304;11.902;2023-01-31T01:12:13;9.40;;;4.03;;
8927;SDS011;4499;48.304;11.902;2023-01-31T01:14:41;9.73;;;4.10;;
8927;SDS011;4499;48.304;11.902;2023-01-31T01:17:09;9.47;;;4.50;;
8927;SDS011;4499;48.304;11.902;2023-01-31T01:19:37;5.63;;;3.80;;
8927;SDS011;4499;48.304;11.902;2023-01-31T01:22:05;8.47;;;4.60;;
8927;SDS011;4499;48.304;11.902;2023-01-31T01:24:33;8.40;;;4.20;;
8927;SDS011;4499;48.304;11.902;2023-01-31T01:27:03;6.70;;;3.80;;
8927;SDS011;4499;48.304;11.902;2023-01-31T01:29:31;9.70;;;4.33;;
8927;SDS011;4499;48.304;11.902;2023-01-31T01:32:00;6.83;;;4.07;;
8927;SDS011;4499;48.304;11.902;2023-01-31T01:34:31;10.80;;;4.13;;
8927;SDS011;4499;48.304;11.902;2023-01-31T01:37:00;6.93;;;3.87;;
8927;SDS011;4499;48.304;11.902;2023-01-31T01:39:37;7.77;;;4.23;;
8927;SDS011;4499;48.304;11.902;2023-01-31T01:42:12;7.70;;;3.87;;
8927;SDS011;4499;48.304;11.902;2023-01-31T01:44:46;8.40;;;4.27;;
8927;SDS011;4499;48.304;11.902;2023-01-31T01:47:17;6.90;;;3.97;;
8927;SDS011;4499;48.304;11.902;2023-01-31T01:49:58;7.87;;;4.40;;
8927;SDS011;4499;48.304;11.902;2023-01-31T01:52:29;11.87;;;4.27;;
8927;SDS011;4499;48.304;11.902;2023-01-31T01:55:03;7.47;;;4.50;;
8927;SDS011;4499;48.304;11.902;2023-01-31T01:57:40;9.17;;;4.70;;
8927;SDS011;4499;48.304;11.902;2023-01-31T02:00:12;7.47;;;4.33;;
8927;SDS011;4499;48.304;11.902;2023-01-31T02:02:42;7.47;;;4.50;;
8927;SDS011;4499;48.304;11.902;2023-01-31T02:05:15;8.70;;;4.70;;
8927;SDS011;4499;48.304;11.902;2023-01-31T02:07:47;7.43;;;4.50;;
8927;SDS011;4499;48.304;11.902;2023-01-31T02:10:16;8.93;;;4.40;;
8927;SDS011;4499;48.304;11.902;2023-01-31T02:12:50;6.53;;;4.50;;
8927;SDS011;4499;48.304;11.902;2023-01-31T02:15:18;7.73;;;5.17;;
8927;SDS011;4499;48.304;11.902;2023-01-31T02:17:47;8.17;;;4.60;;
8927;SDS011;4499;48.304;11.902;2023-01-31T02:20:20;10.27;;;5.13;;
8927;SDS011;4499;48.304;11.902;2023-01-31T02:23:03;6.50;;;4.70;;
8927;SDS011;4499;48.304;11.902;2023-01-31T02:25:59;10.27;;;5.50;;
8927;SDS011;4499;48.304;11.902;2023-01-31T02:34:54;9.53;;;5.37;;
8927;SDS011;4499;48.304;11.902;2023-01-31T02:37:36;9.20;;;5.30;;
8927;SDS011;4499;48.304;11.902;2023-01-31T02:40:14;8.80;;;5.40;;
8927;SDS011;4499;48.304;11.902;2023-01-31T02:42:49;8.20;;;5.40;;
8927;SDS011;4499;48.304;11.902;2023-01-31T02:45:28;8.23;;;5.93;;
8927;SDS011;4499;48.304;11.902;2023-01-31T02:48:06;9.97;;;5.70;;
8927;SDS011;4499;48.304;11.902;2023-01-31T02:50:43;9.93;;;5.73;;
8927;SDS011;4499;48.304;11.902;2023-01-31T02:53:18;13.17;;;5.93;;
8927;SDS011;4499;48.304;11.902;2023-01-31T02:55:52;11.13;;;5.60;;
8927;SDS011;4499;48.304;11.902;2023-01-31T02:58:44;9.57;;;6.10;;
8927;SDS011;4499;48.304;11.902;2023-01-31T03:01:20;10.00;;;6.00;;
8927;SDS011;4499;48.304;11.902;2023-01-31T03:03:52;9.40;;;5.60;;
8927;SDS011;4499;48.304;11.902;2023-01-31T03:09:37;9.83;;;6.03;;
8927;SDS011;4499;48.304;11.902;2023-01-31T03:12:16;9.57;;;5.70;;
8927;SDS011;4499;48.304;11.902;2023-01-31T03:15:00;8.70;;;5.37;;
8927;SDS011;4499;48.304;11.902;2023-01-31T03:17:54;12.47;;;5.80;;
8927;SDS011;4499;48.304;11.902;2023-01-31T03:20:29;9.63;;;5.70;;
8927;SDS011;4499;48.304;11.902;2023-01-31T03:23:02;9.27;;;5.30;;
8927;SDS011;4499;48.304;11.902;2023-01-31T03:25:33;9.33;;;5.83;;
8927;SDS011;4499;48.304;11.902;2023-01-31T03:28:04;10.67;;;5.60;;
8927;SDS011;4499;48.304;11.902;2023-01-31T03:30:38;10.40;;;5.30;;
8927;SDS011;4499;48.304;11.902;2023-01-31T03:33:12;10.27;;;5.83;;
8927;SDS011;4499;48.304;11.902;2023-01-31T03:35:49;8.60;;;5.50;;
8927;SDS011;4499;48.304;11.902;2023-01-31T03:38:23;10.67;;;5.47;;
8927;SDS011;4499;48.304;11.902;2023-01-31T03:40:56;10.97;;;5.50;;
8927;SDS011;4499;48.304;11.902;2023-01-31T03:43:30;9.57;;;5.10;;
8927;SDS011;4499;48.304;11.902;2023-01-31T03:46:04;9.93;;;5.30;;
8927;SDS011;4499;48.304;11.902;2023-01-31T03:48:37;8.93;;;5.27;;
8927;SDS011;4499;48.304;11.902;2023-01-31T03:51:09;11.37;;;5.53;;
8927;SDS011;4499;48.304;11.902;2023-01-31T03:53:44;10.87;;;5.50;;
8927;SDS011;4499;48.304;11.902;2023-01-31T03:56:16;9.50;;;5.83;;
8927;SDS011;4499;48.304;11.902;2023-01-31T03:58:50;10.53;;;5.50;;
8927;SDS011;4499;48.304;11.902;2023-01-31T04:01:21;8.13;;;5.53;;
8927;SDS011;4499;48.304;11.902;2023-01-31T04:03:52;10.53;;;5.53;;
8927;SDS011;4499;48.304;11.902;2023-01-31T04:06:26;10.17;;;5.43;;
8927;SDS011;4499;48.304;11.902;2023-01-31T04:08:55;12.20;;;5.87;;
8927;SDS011;4499;48.304;11.902;2023-01-31T04:11:24;10.60;;;5.90;;
8927;SDS011;4499;48.304;11.902;2023-01-31T04:13:54;9.47;;;6.07;;
8927;SDS011;4499;48.304;11.902;2023-01-31T04:16:22;11.53;;;5.70;;
8927;SDS011;4499;48.304;11.902;2023-01-31T04:18:50;10.90;;;6.17;;
8927;SDS011;4499;48.304;11.902;2023-01-31T04:21:18;11.97;;;6.30;;
8927;SDS011;4499;48.304;11.902;2023-01-31T04:23:48;8.33;;;5.60;;
8927;SDS011;4499;48.304;11.902;2023-01-31T04:26:16;10.43;;;5.80;;
8927;SDS011;4499;48.304;11.902;2023-01-31T04:28:44;10.43;;;5.63;;
8927;SDS011;4499;48.304;11.902;2023-01-31T04:31:13;8.50;;;5.73;;
8927;SDS011;4499;48.304;11.902;2023-01-31T04:33:41;8.47;;;5.33;;
8927;SDS011;4499;48.304;11.902;2023-01-31T04:36:09;8.63;;;5.10;;
8927;SDS011;4499;48.304;11.902;2023-01-31T04:38:37;9.73;;;5.73;;
8927;SDS011;4499;48.304;11.902;2023-01-31T04:41:07;11.73;;;5.90;;
8927;SDS011;4499;48.304;11.902;2023-01-31T04:43:36;11.47;;;6.40;;
8927;SDS011;4499;48.304;11.902;2023-01-31T04:46:04;10.93;;;5.90;;
8927;SDS011;4499;48.304;11.902;2023-01-31T04:48:32;9.27;;;5.93;;
8927;SDS011;4499;48.304;11.902;2023-01-31T04:51:00;9.43;;;5.90;;
8927;SDS011;4499;48.304;11.902;2023-01-31T04:53:28;11.70;;;6.13;;
8927;SDS011;4499;48.304;11.902;2023-01-31T04:55:56;10.20;;;5.67;;
8927;SDS011;4499;48.304;11.902;2023-01-31T04:58:26;9.03;;;5.60;;
8927;SDS011;4499;48.304;11.902;2023-01-31T05:00:54;11.53;;;5.77;;
8927;SDS011;4499;48.304;11.902;2023-01-31T05:03:23;9.43;;;5.80;;
8927;SDS011;4499;48.304;11.902;2023-01-31T05:05:51;8.00;;;5.60;;
8927;SDS011;4499;48.304;11.902;2023-01-31T05:08:19;9.43;;;5.70;;
8927;SDS011;4499;48.304;11.902;2023-01-31T05:10:47;11.23;;;6.00;;
8927;SDS011;4499;48.304;11.902;2023-01-31T05:13:15;11.83;;;5.60;;
8927;SDS011;4499;48.304;11.902;2023-01-31T05:15:47;11.63;;;5.80;;
8927;SDS011;4499;48.304;11.902;2023-01-31T05:18:15;8.97;;;5.50;;
8927;SDS011;4499;48.304;11.902;2023-01-31T05:20:43;10.20;;;5.47;;
8927;SDS011;4499;48.304;11.902;2023-01-31T05:23:12;10.07;;;5.47;;
8927;SDS011;4499;48.304;11.902;2023-01-31T05:25:40;9.37;;;5.23;;
8927;SDS011;4499;48.304;11.902;2023-01-31T05:28:08;11.97;;;5.63;;
8927;SDS011;4499;48.304;11.902;2023-01-31T05:30:37;9.90;;;5.50;;
8927;SDS011;4499;48.304;11.902;2023-01-31T05:33:07;10.23;;;5.47;;
8927;SDS011;4499;48.304;11.902;2023-01-31T05:35:35;9.93;;;5.70;;
8927;SDS011;4499;48.304;11.902;2023-01-31T05:38:04;10.27;;;5.60;;
8927;SDS011;4499;48.304;11.902;2023-01-31T05:40:32;11.53;;;5.50;;
8927;SDS011;4499;48.304;11.902;2023-01-31T05:43:01;13.93;;;6.00;;
8927;SDS011;4499;48.304;11.902;2023-01-31T05:45:29;13.13;;;5.67;;
8927;SDS011;4499;48.304;11.902;2023-01-31T05:47:58;10.93;;;6.03;;
8927;SDS011;4499;48.304;11.902;2023-01-31T05:50:27;8.80;;;5.43;;
8927;SDS011;4499;48.304;11.902;2023-01-31T05:52:56;10.73;;;5.80;;
8927;SDS011;4499;48.304;11.902;2023-01-31T05:55:26;12.77;;;6.07;;
8927;SDS011;4499;48.304;11.902;2023-01-31T05:57:55;8.63;;;5.57;;
8927;SDS011;4499;48.304;11.902;2023-01-31T06:00:23;11.43;;;5.90;;
8927;SDS011;4499;48.304;11.902;2023-01-31T06:02:51;10.37;;;5.53;;
8927;SDS011;4499;48.304;11.902;2023-01-31T06:05:23;11.77;;;5.50;;
8927;SDS011;4499;48.304;11.902;2023-01-31T06:07:52;8.67;;;5.47;;
8927;SDS011;4499;48.304;11.902;2023-01-31T06:10:22;9.63;;;5.70;;
8927;SDS011;4499;48.304;11.902;2023-01-31T06:12:50;9.67;;;5.67;;
8927;SDS011;4499;48.304;11.902;2023-01-31T06:15:18;10.90;;;5.73;;
8927;SDS011;4499;48.304;11.902;2023-01-31T06:17:46;12.43;;;5.63;;
8927;SDS011;4499;48.304;11.902;2023-01-31T06:20:14;12.60;;;5.20;;
8927;SDS011;4499;48.304;11.902;2023-01-31T06:22:43;11.47;;;6.00;;
8927;SDS011;4499;48.304;11.902;2023-01-31T06:25:13;11.63;;;6.23;;
8927;SDS011;4499;48.304;11.902;2023-01-31T06:27:41;11.70;;;6.23;;
8927;SDS011;4499;48.304;11.902;2023-01-31T06:30:10;13.67;;;6.27;;
8927;SDS011;4499;48.304;11.902;2023-01-31T06:32:38;12.40;;;6.37;;
8927;SDS011;4499;48.304;11.902;2023-01-31T06:35:07;10.77;;;6.10;;
8927;SDS011;4499;48.304;11.902;2023-01-31T06:37:35;11.60;;;5.83;;
8927;SDS011;4499;48.304;11.902;2023-01-31T06:40:04;13.87;;;6.07;;
8927;SDS011;4499;48.304;11.902;2023-01-31T06:42:34;13.00;;;6.17;;
8927;SDS011;4499;48.304;11.902;2023-01-31T06:45:02;11.67;;;6.10;;
8927;SDS011;4499;48.304;11.902;2023-01-31T06:47:31;11.43;;;5.57;;
8927;SDS011;4499;48.304;11.902;2023-01-31T06:49:59;9.37;;;5.50;;
8927;SDS011;4499;48.304;11.902;2023-01-31T06:52:27;13.43;;;6.17;;
8927;SDS011;4499;48.304;11.902;2023-01-31T06:54:55;13.37;;;5.87;;
8927;SDS011;4499;48.304;11.902;2023-01-31T06:57:23;10.80;;;5.43;;
8927;SDS011;4499;48.304;11.902;2023-01-31T06:59:53;10.30;;;5.47;;
8927;SDS011;4499;48.304;11.902;2023-01-31T07:02:22;10.70;;;5.33;;
8927;SDS011;4499;48.304;11.902;2023-01-31T07:04:50;11.87;;;4.90;;
8927;SDS011;4499;48.304;11.902;2023-01-31T07:07:18;13.50;;;4.93;;
8927;SDS011;4499;48.304;11.902;2023-01-31T07:09:46;12.57;;;5.40;;
8927;SDS011;4499;48.304;11.902;2023-01-31T07:12:14;10.40;;;5.13;;
8927;SDS011;4499;48.304;11.902;2023-01-31T07:14:42;8.83;;;4.80;;
8927;SDS011;4499;48.304;11.902;2023-01-31T07:17:12;9.67;;;4.87;;
8927;SDS011;4499;48.304;11.902;2023-01-31T07:19:40;10.40;;;4.63;;
8927;SDS011;4499;48.304;11.902;2023-01-31T07:22:08;9.37;;;4.67;;
8927;SDS011;4499;48.304;11.902;2023-01-31T07:24:36;11.97;;;4.77;;
8927;SDS011;4499;48.304;11.902;2023-01-31T07:27:04;8.70;;;4.60;;
8927;SDS011;4499;48.304;11.902;2023-01-31T07:29:32;16.70;;;5.00;;
8927;SDS011;4499;48.304;11.902;2023-01-31T07:32:03;10.97;;;4.47;;
8927;SDS011;4499;48.304;11.902;2023-01-31T07:34:33;12.63;;;5.07;;
8927;SDS011;4499;48.304;11.902;2023-01-31T07:37:02;9.57;;;4.77;;
8927;SDS011;4499;48.304;11.902;2023-01-31T07:39:30;9.50;;;4.60;;
8927;SDS011;4499;48.304;11.902;2023-01-31T07:41:58;9.67;;;4.40;;
8927;SDS011;4499;48.304;11.902;2023-01-31T07:44:26;13.40;;;4.97;;
8927;SDS011;4499;48.304;11.902;2023-01-31T07:46:55;9.83;;;4.40;;
8927;SDS011;4499;48.304;11.902;2023-01-31T07:49:23;9.57;;;4.37;;
8927;SDS011;4499;48.304;11.902;2023-01-31T07:51:52;7.37;;;4.07;;
8927;SDS011;4499;48.304;11.902;2023-01-31T07:54:20;10.13;;;4.70;;
8927;SDS011;4499;48.304;11.902;2023-01-31T07:56:49;11.60;;;4.77;;
8927;SDS011;4499;48.304;11.902;2023-01-31T07:59:18;10.53;;;5.30;;
8927;SDS011;4499;48.304;11.902;2023-01-31T08:01:46;11.53;;;4.93;;
8927;SDS011;4499;48.304;11.902;2023-01-31T08:04:32;10.57;;;4.60;;
8927;SDS011;4499;48.304;11.902;2023-01-31T08:07:02;9.10;;;4.53;;
8927;SDS011;4499;48.304;11.902;2023-01-31T08:09:31;11.33;;;4.50;;
8927;SDS011;4499;48.304;11.902;2023-01-31T08:12:00;10.50;;;4.53;;
8927;SDS011;4499;48.304;11.902;2023-01-31T08:14:28;10.20;;;5.10;;
8927;SDS011;4499;48.304;11.902;2023-01-31T08:16:56;10.07;;;5.07;;
8927;SDS011;4499;48.304;11.902;2023-01-31T08:19:24;11.57;;;4.93;;
8927;SDS011;4499;48.304;11.902;2023-01-31T08:21:53;9.47;;;4.80;;
8927;SDS011;4499;48.304;11.902;2023-01-31T08:24:22;12.73;;;4.80;;
8927;SDS011;4499;48.304;11.902;2023-01-31T08:26:51;9.87;;;4.87;;
8927;SDS011;4499;48.304;11.902;2023-01-31T08:29:19;11.43;;;4.90;;
8927;SDS011;4499;48.304;11.902;2023-01-31T08:31:47;10.33;;;4.47;;
8927;SDS011;4499;48.304;11.902;2023-01-31T08:34:17;9.80;;;4.47;;
8927;SDS011;4499;48.304;11.902;2023-01-31T08:36:47;11.23;;;4.60;;
8927;SDS011;4499;48.304;11.902;2023-01-31T08:39:15;10.40;;;4.60;;
8927;SDS011;4499;48.304;11.902;2023-01-31T08:41:45;11.53;;;4.47;;
8927;SDS011;4499;48.304;11.902;2023-01-31T08:44:13;8.67;;;4.03;;
8927;SDS011;4499;48.304;11.902;2023-01-31T08:46:41;7.87;;;4.00;;
8927;SDS011;4499;48.304;11.902;2023-01-31T08:49:12;9.80;;;4.73;;
8927;SDS011;4499;48.304;11.902;2023-01-31T08:51:40;8.97;;;4.20;;
8927;SDS011;4499;48.304;11.902;2023-01-31T08:54:08;10.03;;;4.10;;
8927;SDS011;4499;48.304;11.902;2023-01-31T08:56:38;10.93;;;4.17;;
8927;SDS011;4499;48.304;11.902;2023-01-31T08:59:08;8.37;;;3.43;;
8927;SDS011;4499;48.304;11.902;2023-01-31T09:01:38;7.70;;;3.27;;
8927;SDS011;4499;48.304;11.902;2023-01-31T09:04:07;9.03;;;3.17;;
8927;SDS011;4499;48.304;11.902;2023-01-31T09:06:35;12.03;;;3.70;;
8927;SDS011;4499;48.304;11.902;2023-01-31T09:09:03;8.97;;;3.40;;
8927;SDS011;4499;48.304;11.902;2023-01-31T09:11:31;6.83;;;3.07;;
8927;SDS011;4499;48.304;11.902;2023-01-31T09:14:01;7.60;;;3.10;;
8927;SDS011;4499;48.304;11.902;2023-01-31T09:16:31;9.33;;;3.20;;
8927;SDS011;4499;48.304;11.902;2023-01-31T09:18:59;7.53;;;3.10;;
8927;SDS011;4499;48.304;11.902;2023-01-31T09:21:27;8.00;;;3.10;;
8927;SDS011;4499;48.304;11.902;2023-01-31T09:23:57;6.67;;;3.03;;
8927;SDS011;4499;48.304;11.902;2023-01-31T09:26:27;7.27;;;3.20;;
8927;SDS011;4499;48.304;11.902;2023-01-31T09:28:57;6.87;;;2.70;;
8927;SDS011;4499;48.304;11.902;2023-01-31T09:31:27;6.97;;;3.07;;
8927;SDS011;4499;48.304;11.902;2023-01-31T09:33:57;9.10;;;3.07;;
8927;SDS011;4499;48.304;11.902;2023-01-31T09:36:26;9.57;;;3.00;;
8927;SDS011;4499;48.304;11.902;2023-01-31T09:38:55;9.47;;;3.13;;
8927;SDS011;4499;48.304;11.902;2023-01-31T09:41:27;8.43;;;3.17;;
8927;SDS011;4499;48.304;11.902;2023-01-31T09:44:00;7.67;;;3.00;;
8927;SDS011;4499;48.304;11.902;2023-01-31T09:46:31;9.33;;;3.40;;
8927;SDS011;4499;48.304;11.902;2023-01-31T09:49:05;8.10;;;3.10;;
8927;SDS011;4499;48.304;11.902;2023-01-31T09:51:37;7.27;;;2.83;;
8927;SDS011;4499;48.304;11.902;2023-01-31T09:54:06;8.73;;;2.90;;
8927;SDS011;4499;48.304;11.902;2023-01-31T09:56:44;7.40;;;3.20;;
8927;SDS011;4499;48.304;11.902;2023-01-31T09:59:19;7.10;;;3.10;;
8927;SDS011;4499;48.304;11.902;2023-01-31T10:01:51;7.17;;;3.00;;
8927;SDS011;4499;48.304;11.902;2023-01-31T10:04:32;9.80;;;3.00;;
8927;SDS011;4499;48.304;11.902;2023-01-31T10:07:11;7.87;;;2.87;;
8927;SDS011;4499;48.304;11.902;2023-01-31T10:09:44;9.40;;;2.87;;
8927;SDS011;4499;48.304;11.902;2023-01-31T10:12:19;8.93;;;3.17;;
8927;SDS011;4499;48.304;11.902;2023-01-31T10:14:51;5.73;;;2.33;;
8927;SDS011;4499;48.304;11.902;2023-01-31T10:17:23;7.03;;;2.67;;
8927;SDS011;4499;48.304;11.902;2023-01-31T10:19:56;5.70;;;2.67;;
8927;SDS011;4499;48.304;11.902;2023-01-31T10:22:31;8.97;;;3.00;;
8927;SDS011;4499;48.304;11.902;2023-01-31T10:25:07;9.10;;;3.20;;
8927;SDS011;4499;48.304;11.902;2023-01-31T10:27:47;7.13;;;2.60;;
8927;SDS011;4499;48.304;11.902;2023-01-31T10:30:19;9.60;;;2.70;;
8927;SDS011;4499;48.304;11.902;2023-01-31T10:32:52;8.83;;;3.07;;
8927;SDS011;4499;48.304;11.902;2023-01-31T10:35:28;6.70;;;2.70;;
8927;SDS011;4499;48.304;11.902;2023-01-31T10:38:00;11.70;;;3.50;;
8927;SDS011;4499;48.304;11.902;2023-01-31T10:40:34;9.97;;;3.03;;
8927;SDS011;4499;48.304;11.902;2023-01-31T10:43:09;7.37;;;3.10;;
8927;SDS011;4499;48.304;11.902;2023-01-31T10:45:41;9.70;;;3.60;;
8927;SDS011;4499;48.304;11.902;2023-01-31T10:48:12;8.23;;;3.20;;
8927;SDS011;4499;48.304;11.902;2023-01-31T10:50:47;7.97;;;3.30;;
8927;SDS011;4499;48.304;11.902;2023-01-31T10:53:26;8.90;;;2.80;;
8927;SDS011;4499;48.304;11.902;2023-01-31T10:56:02;7.13;;;3.23;;
8927;SDS011;4499;48.304;11.902;2023-01-31T10:58:32;7.83;;;3.00;;
8927;SDS011;4499;48.304;11.902;2023-01-31T11:01:02;8.37;;;3.60;;
8927;SDS011;4499;48.304;11.902;2023-01-31T11:03:33;7.07;;;3.00;;
8927;SDS011;4499;48.304;11.902;2023-01-31T11:06:03;12.63;;;3.40;;
8927;SDS011;4499;48.304;11.902;2023-01-31T11:08:33;9.57;;;3.17;;
8927;SDS011;4499;48.304;11.902;2023-01-31T11:11:04;13.13;;;4.57;;
8927;SDS011;4499;48.304;11.902;2023-01-31T11:13:34;8.20;;;3.37;;
8927;SDS011;4499;48.304;11.902;2023-01-31T11:16:03;10.60;;;3.40;;
8927;SDS011;4499;48.304;11.902;2023-01-31T11:18:36;8.13;;;2.70;;
8927;SDS011;4499;48.304;11.902;2023-01-31T11:21:11;10.17;;;3.27;;
8927;SDS011;4499;48.304;11.902;2023-01-31T11:23:46;7.27;;;3.13;;
8927;SDS011;4499;48.304;11.902;2023-01-31T11:26:23;7.67;;;3.13;;
8927;SDS011;4499;48.304;11.902;2023-01-31T11:28:53;7.23;;;3.27;;
8927;SDS011;4499;48.304;11.902;2023-01-31T11:31:24;7.00;;;2.77;;
8927;SDS011;4499;48.304;11.902;2023-01-31T11:33:57;11.10;;;3.27;;
8927;SDS011;4499;48.304;11.902;2023-01-31T11:36:31;10.83;;;2.80;;
8927;SDS011;4499;48.304;11.902;2023-01-31T11:39:17;8.37;;;2.90;;
8927;SDS011;4499;48.304;11.902;2023-01-31T11:41:54;7.60;;;2.77;;
8927;SDS011;4499;48.304;11.902;2023-01-31T11:44:22;8.90;;;2.60;;
8927;SDS011;4499;48.304;11.902;2023-01-31T11:46:51;9.20;;;2.90;;
8927;SDS011;4499;48.304;11.902;2023-01-31T11:49:23;8.20;;;2.73;;
8927;SDS011;4499;48.304;11.902;2023-01-31T11:51:58;8.43;;;2.97;;
8927;SDS011;4499;48.304;11.902;2023-01-31T11:54:29;8.67;;;3.07;;
8927;SDS011;4499;48.304;11.902;2023-01-31T11:57:00;11.27;;;2.70;;
8927;SDS011;4499;48.304;11.902;2023-01-31T11:59:29;10.57;;;2.80;;
8927;SDS011;4499;48.304;11.902;2023-01-31T12:01:58;7.67;;;2.50;;
8927;SDS011;4499;48.304;11.902;2023-01-31T12:04:31;9.50;;;3.07;;
8927;SDS011;4499;48.304;11.902;2023-01-31T12:07:20;7.77;;;3.30;;
8927;SDS011;4499;48.304;11.902;2023-01-31T12:09:49;9.97;;;3.07;;
8927;SDS011;4499;48.304;11.902;2023-01-31T12:12:22;10.60;;;3.10;;
8927;SDS011;4499;48.304;11.902;2023-01-31T12:14:57;7.00;;;2.80;;
8927;SDS011;4499;48.304;11.902;2023-01-31T12:17:27;8.40;;;3.10;;
8927;SDS011;4499;48.304;11.902;2023-01-31T12:20:03;9.60;;;2.93;;
8927;SDS011;4499;48.304;11.902;2023-01-31T12:23:01;5.57;;;2.87;;
8927;SDS011;4499;48.304;11.902;2023-01-31T12:25:42;9.53;;;2.97;;
8927;SDS011;4499;48.304;11.902;2023-01-31T12:28:23;5.93;;;2.63;;
8927;SDS011;4499;48.304;11.902;2023-01-31T12:31:05;8.00;;;2.90;;
8927;SDS011;4499;48.304;11.902;2023-01-31T12:33:59;8.70;;;3.20;;
8927;SDS011;4499;48.304;11.902;2023-01-31T12:36:41;7.77;;;2.93;;
8927;SDS011;4499;48.304;11.902;2023-01-31T12:39:33;9.50;;;3.30;;
8927;SDS011;4499;48.304;11.902;2023-01-31T12:42:16;6.93;;;3.23;;
8927;SDS011;4499;48.304;11.902;2023-01-31T12:45:02;9.83;;;3.70;;
8927;SDS011;4499;48.304;11.902;2023-01-31T12:47:45;9.70;;;3.70;;
8927;SDS011;4499;48.304;11.902;2023-01-31T12:50:31;9.20;;;3.27;;
8927;SDS011;4499;48.304;11.902;2023-01-31T12:53:09;10.30;;;3.33;;
8927;SDS011;4499;48.304;11.902;2023-01-31T12:55:52;9.00;;;3.60;;
8927;SDS011;4499;48.304;11.902;2023-01-31T12:58:34;8.53;;;3.30;;
8927;SDS011;4499;48.304;11.902;2023-01-31T13:01:10;9.97;;;3.70;;
8927;SDS011;4499;48.304;11.902;2023-01-31T13:03:48;7.87;;;3.57;;
8927;SDS011;4499;48.304;11.902;2023-01-31T13:06:27;9.60;;;3.50;;
8927;SDS011;4499;48.304;11.902;2023-01-31T13:09:01;12.80;;;3.53;;
8927;SDS011;4499;48.304;11.902;2023-01-31T13:11:36;8.70;;;3.90;;
8927;SDS011;4499;48.304;11.902;2023-01-31T13:14:10;9.30;;;4.00;;
8927;SDS011;4499;48.304;11.902;2023-01-31T13:16:43;7.60;;;3.40;;
8927;SDS011;4499;48.304;11.902;2023-01-31T13:19:14;13.23;;;3.93;;
8927;SDS011;4499;48.304;11.902;2023-01-31T13:21:47;11.10;;;3.53;;
8927;SDS011;4499;48.304;11.902;2023-01-31T13:24:19;11.30;;;3.70;;
8927;SDS011;4499;48.304;11.902;2023-01-31T13:26:53;6.50;;;3.60;;
8927;SDS011;4499;48.304;11.902;2023-01-31T13:29:25;10.73;;;3.90;;
8927;SDS011;4499;48.304;11.902;2023-01-31T13:31:58;8.73;;;3.37;;
8927;SDS011;4499;48.304;11.902;2023-01-31T13:34:30;7.43;;;3.60;;
8927;SDS011;4499;48.304;11.902;2023-01-31T13:37:06;7.60;;;3.97;;
8927;SDS011;4499;48.304;11.902;2023-01-31T13:39:40;10.60;;;3.90;;
8927;SDS011;4499;48.304;11.902;2023-01-31T13:42:13;6.10;;;3.40;;
8927;SDS011;4499;48.304;11.902;2023-01-31T13:44:42;6.80;;;3.67;;
8927;SDS011;4499;48.304;11.902;2023-01-31T13:47:13;10.27;;;3.93;;
8927;SDS011;4499;48.304;11.902;2023-01-31T13:49:46;7.87;;;3.73;;
8927;SDS011;4499;48.304;11.902;2023-01-31T13:52:18;9.10;;;3.67;;
8927;SDS011;4499;48.304;11.902;2023-01-31T13:54:50;9.30;;;4.10;;
8927;SDS011;4499;48.304;11.902;2023-01-31T13:57:25;7.70;;;4.20;;
8927;SDS011;4499;48.304;11.902;2023-01-31T13:59:59;7.33;;;4.13;;
8927;SDS011;4499;48.304;11.902;2023-01-31T14:02:35;7.80;;;4.03;;
8927;SDS011;4499;48.304;11.902;2023-01-31T14:05:04;9.43;;;4.13;;
8927;SDS011;4499;48.304;11.902;2023-01-31T14:07:35;10.03;;;4.53;;
8927;SDS011;4499;48.304;11.902;2023-01-31T14:10:25;8.83;;;4.47;;
8927;SDS011;4499;48.304;11.902;2023-01-31T14:19:02;6.67;;;4.33;;
8927;SDS011;4499;48.304;11.902;2023-01-31T14:24:53;8.33;;;4.43;;
8927;SDS011;4499;48.304;11.902;2023-01-31T14:27:31;7.33;;;4.47;;
8927;SDS011;4499;48.304;11.902;2023-01-31T14:30:14;9.80;;;4.60;;
8927;SDS011;4499;48.304;11.902;2023-01-31T14:33:05;8.30;;;4.70;;
8927;SDS011;4499;48.304;11.902;2023-01-31T14:35:49;7.03;;;4.40;;
8927;SDS011;4499;48.304;11.902;2023-01-31T14:38:53;9.60;;;5.67;;
8927;SDS011;4499;48.304;11.902;2023-01-31T14:41:58;7.90;;;5.03;;
8927;SDS011;4499;48.304;11.902;2023-01-31T14:44:45;8.30;;;5.30;;
8927;SDS011;4499;48.304;11.902;2023-01-31T14:47:33;9.50;;;5.23;;
8927;SDS011;4499;48.304;11.902;2023-01-31T14:50:19;6.87;;;4.80;;
8927;SDS011;4499;48.304;11.902;2023-01-31T14:53:02;28.50;;;15.90;;
8927;SDS011;4499;48.304;11.902;2023-01-31T14:55:43;8.60;;;6.00;;
8927;SDS011;4499;48.304;11.902;2023-01-31T14:58:23;7.40;;;4.90;;
8927;SDS011;4499;48.304;11.902;2023-01-31T15:00:54;6.77;;;4.83;;
8927;SDS011;4499;48.304;11.902;2023-01-31T15:03:27;7.27;;;4.47;;
8927;SDS011;4499;48.304;11.902;2023-01-31T15:06:05;7.30;;;4.73;;
8927;SDS011;4499;48.304;11.902;2023-01-31T15:08:39;8.87;;;5.37;;
8927;SDS011;4499;48.304;11.902;2023-01-31T15:11:11;6.60;;;4.90;;
8927;SDS011;4499;48.304;11.902;2023-01-31T15:17:02;7.97;;;4.70;;
8927;SDS011;4499;48.304;11.902;2023-01-31T15:19:59;6.17;;;4.80;;
8927;SDS011;4499;48.304;11.902;2023-01-31T15:22:40;8.27;;;4.63;;
8927;SDS011;4499;48.304;11.902;2023-01-31T15:25:17;6.37;;;4.27;;
8927;SDS011;4499;48.304;11.902;2023-01-31T15:27:49;6.53;;;4.70;;
8927;SDS011;4499;48.304;11.902;2023-01-31T15:30:21;6.40;;;4.90;;
8927;SDS011;4499;48.304;11.902;2023-01-31T15:32:50;6.00;;;4.70;;
8927;SDS011;4499;48.304;11.902;2023-01-31T15:35:26;6.90;;;5.10;;
8927;SDS011;4499;48.304;11.902;2023-01-31T15:37:57;6.03;;;4.60;;
8927;SDS011;4499;48.304;11.902;2023-01-31T15:40:30;11.67;;;5.20;;
8927;SDS011;4499;48.304;11.902;2023-01-31T15:43:14;6.37;;;4.83;;
8927;SDS011;4499;48.304;11.902;2023-01-31T15:45:43;7.43;;;5.30;;
8927;SDS011;4499;48.304;11.902;2023-01-31T15:48:15;8.30;;;5.60;;
8927;SDS011;4499;48.304;11.902;2023-01-31T15:50:49;7.97;;;5.33;;